Main page
METAR-TAF:

METAR-TAF

Airports :

Istres-Le Tubé Air Base

Istres, France

latitude: 43-31N, longitude: 004-56E, elevation: 23 m

Current weather observation

The report was made 23 minutes ago, at 02:30 UTC
Wind 4 kt from the Northeast
Temperature 6°C
Humidity 75%
Pressure 1031 hPa
Visibility 10 km or more
no clouds below 1500 m and no cumulonimbus

METAR: LFMI 030230Z AUTO 04004KT CAVOK 06/02 Q1031 NOSIG

Time: 03:53 (02:53 UTC)

Forecast

The report was made 53 minutes ago, at 02:00 UTC
Forecast valid from 03 at 03 UTC to 04 at 03 UTC
Wind 7 kt from the Northeast
Visibility 10 km or more
no clouds below 1500 m and no cumulonimbus
Temporary
from 03 at 11 UTC to 03 at 20 UTC
Wind 10 kt from the South/Southwest
Probability 40% :
Temporary
from 03 at 21 UTC to 04 at 03 UTC
Broken clouds at a height of 1000 ft

TAF: LFMI 030200Z 0303/0403 05007KT CAVOK TX18/0314Z TN04/0306Z TEMPO 0311/0320 20010KT PROB40 TEMPO 0321/0403 BKN010

Weather observations and forecasts of more than 4000 airports (METAR and TAF reports).

The available stations are represented by yellow and red dots on the map.

Hover mouse over dot to see the name of the station.

Then click to see weather observations and forecasts.

To change the map : click on the green buttons with a black cross to zoom in, on the green button with a dash to zoom out, or on the green arrows for adjacent maps.


METAR-TAF: